sensor_id;sensor_type;location;lat;lon;timestamp;P1;durP1;ratioP1;P2;durP2;ratioP2
14080;SDS011;7116;52.152;5.392;2022-10-16T00:01:42;5.65;;;3.03;;
14080;SDS011;7116;52.152;5.392;2022-10-16T00:04:30;6.32;;;2.70;;
14080;SDS011;7116;52.152;5.392;2022-10-16T00:07:17;9.73;;;2.67;;
14080;SDS011;7116;52.152;5.392;2022-10-16T00:10:00;7.25;;;3.15;;
14080;SDS011;7116;52.152;5.392;2022-10-16T00:12:45;5.65;;;2.97;;
14080;SDS011;7116;52.152;5.392;2022-10-16T00:15:22;8.25;;;2.45;;
14080;SDS011;7116;52.152;5.392;2022-10-16T00:17:53;6.20;;;2.92;;
14080;SDS011;7116;52.152;5.392;2022-10-16T00:20:30;11.37;;;3.30;;
14080;SDS011;7116;52.152;5.392;2022-10-16T00:26:12;6.22;;;3.10;;
14080;SDS011;7116;52.152;5.392;2022-10-16T00:32:01;3.15;;;2.50;;
14080;SDS011;7116;52.152;5.392;2022-10-16T00:34:44;7.00;;;2.63;;
14080;SDS011;7116;52.152;5.392;2022-10-16T00:37:30;4.97;;;2.78;;
14080;SDS011;7116;52.152;5.392;2022-10-16T00:40:18;3.70;;;2.72;;
14080;SDS011;7116;52.152;5.392;2022-10-16T00:42:51;4.70;;;2.90;;
14080;SDS011;7116;52.152;5.392;2022-10-16T00:45:36;7.80;;;3.75;;
14080;SDS011;7116;52.152;5.392;2022-10-16T00:51:18;6.95;;;2.83;;
14080;SDS011;7116;52.152;5.392;2022-10-16T00:53:48;4.85;;;2.78;;
14080;SDS011;7116;52.152;5.392;2022-10-16T00:56:23;4.93;;;3.20;;
14080;SDS011;7116;52.152;5.392;2022-10-16T00:59:15;13.82;;;3.10;;
14080;SDS011;7116;52.152;5.392;2022-10-16T01:01:41;4.50;;;3.17;;
14080;SDS011;7116;52.152;5.392;2022-10-16T01:04:24;7.72;;;3.60;;
14080;SDS011;7116;52.152;5.392;2022-10-16T01:09:53;6.97;;;3.10;;
14080;SDS011;7116;52.152;5.392;2022-10-16T01:17:56;5.82;;;3.30;;
14080;SDS011;7116;52.152;5.392;2022-10-16T01:23:57;7.15;;;3.55;;
14080;SDS011;7116;52.152;5.392;2022-10-16T01:26:30;6.45;;;3.67;;
14080;SDS011;7116;52.152;5.392;2022-10-16T01:29:00;8.27;;;3.40;;
14080;SDS011;7116;52.152;5.392;2022-10-16T01:31:35;6.07;;;3.83;;
14080;SDS011;7116;52.152;5.392;2022-10-16T01:34:32;4.90;;;3.20;;
14080;SDS011;7116;52.152;5.392;2022-10-16T01:37:02;9.98;;;3.80;;
14080;SDS011;7116;52.152;5.392;2022-10-16T01:52:20;8.23;;;3.42;;
14080;SDS011;7116;52.152;5.392;2022-10-16T01:58:03;4.83;;;3.40;;
14080;SDS011;7116;52.152;5.392;2022-10-16T02:00:32;5.50;;;3.85;;
14080;SDS011;7116;52.152;5.392;2022-10-16T02:03:12;5.63;;;3.33;;
14080;SDS011;7116;52.152;5.392;2022-10-16T02:05:59;4.72;;;3.25;;
14080;SDS011;7116;52.152;5.392;2022-10-16T02:08:52;5.32;;;3.63;;
14080;SDS011;7116;52.152;5.392;2022-10-16T02:11:38;6.00;;;4.00;;
14080;SDS011;7116;52.152;5.392;2022-10-16T02:17:24;7.15;;;3.58;;
14080;SDS011;7116;52.152;5.392;2022-10-16T02:23:24;6.05;;;3.25;;
14080;SDS011;7116;52.152;5.392;2022-10-16T02:25:57;7.17;;;4.20;;
14080;SDS011;7116;52.152;5.392;2022-10-16T02:31:25;6.72;;;3.35;;
14080;SDS011;7116;52.152;5.392;2022-10-16T02:34:00;7.63;;;3.45;;
14080;SDS011;7116;52.152;5.392;2022-10-16T02:36:39;8.38;;;3.38;;
14080;SDS011;7116;52.152;5.392;2022-10-16T02:39:15;7.97;;;3.97;;
14080;SDS011;7116;52.152;5.392;2022-10-16T02:41:41;4.28;;;3.05;;
14080;SDS011;7116;52.152;5.392;2022-10-16T02:44:29;6.53;;;3.67;;
14080;SDS011;7116;52.152;5.392;2022-10-16T02:47:07;5.60;;;2.92;;
14080;SDS011;7116;52.152;5.392;2022-10-16T02:56:08;8.25;;;3.42;;
14080;SDS011;7116;52.152;5.392;2022-10-16T02:58:59;6.45;;;3.50;;
14080;SDS011;7116;52.152;5.392;2022-10-16T03:01:27;5.07;;;3.50;;
14080;SDS011;7116;52.152;5.392;2022-10-16T03:04:15;4.68;;;3.05;;
14080;SDS011;7116;52.152;5.392;2022-10-16T03:06:40;5.77;;;3.90;;
14080;SDS011;7116;52.152;5.392;2022-10-16T03:15:11;3.88;;;3.25;;
14080;SDS011;7116;52.152;5.392;2022-10-16T03:20:47;5.73;;;3.30;;
14080;SDS011;7116;52.152;5.392;2022-10-16T03:23:20;5.60;;;3.50;;
14080;SDS011;7116;52.152;5.392;2022-10-16T03:25:54;4.18;;;2.67;;
14080;SDS011;7116;52.152;5.392;2022-10-16T03:34:15;2.80;;;2.10;;
14080;SDS011;7116;52.152;5.392;2022-10-16T03:36:50;4.63;;;3.78;;
14080;SDS011;7116;52.152;5.392;2022-10-16T03:39:16;4.20;;;3.00;;
14080;SDS011;7116;52.152;5.392;2022-10-16T03:41:41;5.43;;;3.07;;
14080;SDS011;7116;52.152;5.392;2022-10-16T03:44:09;6.30;;;2.60;;
14080;SDS011;7116;52.152;5.392;2022-10-16T03:46:39;5.20;;;3.15;;
14080;SDS011;7116;52.152;5.392;2022-10-16T03:49:04;5.32;;;3.53;;
14080;SDS011;7116;52.152;5.392;2022-10-16T03:51:30;5.37;;;3.40;;
14080;SDS011;7116;52.152;5.392;2022-10-16T03:53:57;6.37;;;2.93;;
14080;SDS011;7116;52.152;5.392;2022-10-16T03:56:26;3.40;;;2.63;;
14080;SDS011;7116;52.152;5.392;2022-10-16T04:02:10;9.52;;;3.20;;
14080;SDS011;7116;52.152;5.392;2022-10-16T04:04:38;3.65;;;2.60;;
14080;SDS011;7116;52.152;5.392;2022-10-16T04:10:19;5.65;;;2.47;;
14080;SDS011;7116;52.152;5.392;2022-10-16T04:13:07;4.38;;;2.22;;
14080;SDS011;7116;52.152;5.392;2022-10-16T04:15:32;4.03;;;2.58;;
14080;SDS011;7116;52.152;5.392;2022-10-16T04:17:57;2.73;;;2.40;;
14080;SDS011;7116;52.152;5.392;2022-10-16T04:20:22;4.47;;;2.67;;
14080;SDS011;7116;52.152;5.392;2022-10-16T04:22:55;3.63;;;2.72;;
14080;SDS011;7116;52.152;5.392;2022-10-16T04:25:23;5.63;;;2.30;;
14080;SDS011;7116;52.152;5.392;2022-10-16T04:43:07;5.32;;;2.67;;
14080;SDS011;7116;52.152;5.392;2022-10-16T04:45:43;7.10;;;2.13;;
14080;SDS011;7116;52.152;5.392;2022-10-16T04:51:03;5.43;;;2.50;;
14080;SDS011;7116;52.152;5.392;2022-10-16T04:53:51;3.42;;;2.67;;
14080;SDS011;7116;52.152;5.392;2022-10-16T04:56:29;2.75;;;2.40;;
14080;SDS011;7116;52.152;5.392;2022-10-16T04:59:10;10.17;;;2.67;;
14080;SDS011;7116;52.152;5.392;2022-10-16T05:10:55;4.30;;;2.88;;
14080;SDS011;7116;52.152;5.392;2022-10-16T05:13:30;3.33;;;2.50;;
14080;SDS011;7116;52.152;5.392;2022-10-16T05:16:13;2.90;;;2.33;;
14080;SDS011;7116;52.152;5.392;2022-10-16T05:22:03;6.72;;;2.90;;
14080;SDS011;7116;52.152;5.392;2022-10-16T05:27:46;4.23;;;2.67;;
14080;SDS011;7116;52.152;5.392;2022-10-16T05:30:31;5.30;;;3.08;;
14080;SDS011;7116;52.152;5.392;2022-10-16T05:36:11;4.93;;;2.95;;
14080;SDS011;7116;52.152;5.392;2022-10-16T05:38:50;8.30;;;3.30;;
14080;SDS011;7116;52.152;5.392;2022-10-16T05:41:15;3.90;;;2.60;;
14080;SDS011;7116;52.152;5.392;2022-10-16T05:47:03;6.53;;;2.78;;
14080;SDS011;7116;52.152;5.392;2022-10-16T05:53:00;3.45;;;2.58;;
14080;SDS011;7116;52.152;5.392;2022-10-16T05:55:28;5.53;;;2.70;;
14080;SDS011;7116;52.152;5.392;2022-10-16T05:57:56;5.55;;;2.55;;
14080;SDS011;7116;52.152;5.392;2022-10-16T06:00:29;5.55;;;2.65;;
14080;SDS011;7116;52.152;5.392;2022-10-16T06:06:08;4.88;;;2.90;;
14080;SDS011;7116;52.152;5.392;2022-10-16T06:08:42;4.63;;;3.00;;
14080;SDS011;7116;52.152;5.392;2022-10-16T06:11:11;7.05;;;3.00;;
14080;SDS011;7116;52.152;5.392;2022-10-16T06:13:39;3.85;;;2.85;;
14080;SDS011;7116;52.152;5.392;2022-10-16T06:16:06;10.05;;;4.50;;
14080;SDS011;7116;52.152;5.392;2022-10-16T06:21:44;6.63;;;3.60;;
14080;SDS011;7116;52.152;5.392;2022-10-16T06:27:15;8.70;;;2.95;;
14080;SDS011;7116;52.152;5.392;2022-10-16T06:29:50;3.83;;;3.00;;
14080;SDS011;7116;52.152;5.392;2022-10-16T06:32:23;5.70;;;3.05;;
14080;SDS011;7116;52.152;5.392;2022-10-16T06:34:49;10.87;;;3.10;;
14080;SDS011;7116;52.152;5.392;2022-10-16T06:37:16;6.30;;;3.30;;
14080;SDS011;7116;52.152;5.392;2022-10-16T06:39:49;4.07;;;2.50;;
14080;SDS011;7116;52.152;5.392;2022-10-16T06:45:25;14.13;;;7.18;;
14080;SDS011;7116;52.152;5.392;2022-10-16T06:56:58;6.65;;;3.35;;
14080;SDS011;7116;52.152;5.392;2022-10-16T06:59:35;8.90;;;3.58;;
14080;SDS011;7116;52.152;5.392;2022-10-16T07:02:03;5.97;;;3.33;;
14080;SDS011;7116;52.152;5.392;2022-10-16T07:04:38;5.25;;;4.03;;
14080;SDS011;7116;52.152;5.392;2022-10-16T07:10:10;6.15;;;3.95;;
14080;SDS011;7116;52.152;5.392;2022-10-16T07:13:02;6.20;;;2.80;;
14080;SDS011;7116;52.152;5.392;2022-10-16T07:16:05;7.85;;;3.95;;
14080;SDS011;7116;52.152;5.392;2022-10-16T07:19:08;8.63;;;3.35;;
14080;SDS011;7116;52.152;5.392;2022-10-16T07:25:07;6.97;;;4.05;;
14080;SDS011;7116;52.152;5.392;2022-10-16T07:27:51;7.60;;;3.90;;
14080;SDS011;7116;52.152;5.392;2022-10-16T07:36:48;7.05;;;4.10;;
14080;SDS011;7116;52.152;5.392;2022-10-16T07:42:29;6.37;;;3.83;;
14080;SDS011;7116;52.152;5.392;2022-10-16T07:50:51;4.18;;;3.00;;
14080;SDS011;7116;52.152;5.392;2022-10-16T08:05:32;5.05;;;2.83;;
14080;SDS011;7116;52.152;5.392;2022-10-16T08:08:25;4.82;;;2.83;;
14080;SDS011;7116;52.152;5.392;2022-10-16T08:11:00;9.87;;;2.60;;
14080;SDS011;7116;52.152;5.392;2022-10-16T08:13:35;5.63;;;2.17;;
14080;SDS011;7116;52.152;5.392;2022-10-16T08:28:41;5.25;;;2.75;;
14080;SDS011;7116;52.152;5.392;2022-10-16T08:31:37;5.13;;;2.38;;
14080;SDS011;7116;52.152;5.392;2022-10-16T08:34:09;4.30;;;2.22;;
14080;SDS011;7116;52.152;5.392;2022-10-16T08:39:52;6.33;;;2.33;;
14080;SDS011;7116;52.152;5.392;2022-10-16T08:42:45;5.85;;;2.13;;
14080;SDS011;7116;52.152;5.392;2022-10-16T08:45:31;3.33;;;1.95;;
14080;SDS011;7116;52.152;5.392;2022-10-16T08:48:09;7.32;;;2.40;;
14080;SDS011;7116;52.152;5.392;2022-10-16T08:50:38;7.43;;;2.55;;
14080;SDS011;7116;52.152;5.392;2022-10-16T08:53:07;14.13;;;2.43;;
14080;SDS011;7116;52.152;5.392;2022-10-16T08:55:53;6.53;;;2.28;;
14080;SDS011;7116;52.152;5.392;2022-10-16T09:01:54;10.25;;;2.55;;
14080;SDS011;7116;52.152;5.392;2022-10-16T09:05:02;8.60;;;2.50;;
14080;SDS011;7116;52.152;5.392;2022-10-16T09:09:41;5.50;;;2.40;;
14080;SDS011;7116;52.152;5.392;2022-10-16T09:14:39;7.57;;;2.30;;
14080;SDS011;7116;52.152;5.392;2022-10-16T09:19:38;5.93;;;1.90;;
14080;SDS011;7116;52.152;5.392;2022-10-16T09:22:11;9.10;;;2.42;;
14080;SDS011;7116;52.152;5.392;2022-10-16T09:24:37;8.33;;;2.43;;
14080;SDS011;7116;52.152;5.392;2022-10-16T09:27:02;5.47;;;1.80;;
14080;SDS011;7116;52.152;5.392;2022-10-16T09:29:27;4.53;;;1.70;;
14080;SDS011;7116;52.152;5.392;2022-10-16T09:31:53;8.37;;;2.63;;
14080;SDS011;7116;52.152;5.392;2022-10-16T09:36:44;8.73;;;2.30;;
14080;SDS011;7116;52.152;5.392;2022-10-16T09:39:10;7.53;;;2.22;;
14080;SDS011;7116;52.152;5.392;2022-10-16T09:41:39;6.18;;;2.60;;
14080;SDS011;7116;52.152;5.392;2022-10-16T09:44:15;7.23;;;2.53;;
14080;SDS011;7116;52.152;5.392;2022-10-16T09:46:42;12.98;;;2.33;;
14080;SDS011;7116;52.152;5.392;2022-10-16T09:49:19;7.77;;;2.40;;
14080;SDS011;7116;52.152;5.392;2022-10-16T09:51:45;8.80;;;2.50;;
14080;SDS011;7116;52.152;5.392;2022-10-16T09:54:13;7.63;;;2.42;;
14080;SDS011;7116;52.152;5.392;2022-10-16T09:56:39;8.57;;;2.70;;
14080;SDS011;7116;52.152;5.392;2022-10-16T09:59:15;7.30;;;2.70;;
14080;SDS011;7116;52.152;5.392;2022-10-16T10:01:47;10.77;;;2.22;;
14080;SDS011;7116;52.152;5.392;2022-10-16T10:04:13;7.30;;;2.13;;
14080;SDS011;7116;52.152;5.392;2022-10-16T10:06:48;7.73;;;2.40;;
14080;SDS011;7116;52.152;5.392;2022-10-16T10:14:24;13.30;;;2.50;;
14080;SDS011;7116;52.152;5.392;2022-10-16T10:16:50;7.70;;;2.45;;
14080;SDS011;7116;52.152;5.392;2022-10-16T10:19:16;8.07;;;2.13;;
14080;SDS011;7116;52.152;5.392;2022-10-16T10:21:42;9.50;;;3.10;;
14080;SDS011;7116;52.152;5.392;2022-10-16T10:24:13;12.50;;;2.23;;
14080;SDS011;7116;52.152;5.392;2022-10-16T10:26:40;10.57;;;2.78;;
14080;SDS011;7116;52.152;5.392;2022-10-16T10:32:03;14.10;;;2.30;;
14080;SDS011;7116;52.152;5.392;2022-10-16T10:34:47;8.07;;;2.15;;
14080;SDS011;7116;52.152;5.392;2022-10-16T10:39:48;9.02;;;2.47;;
14080;SDS011;7116;52.152;5.392;2022-10-16T10:42:18;7.35;;;1.85;;
14080;SDS011;7116;52.152;5.392;2022-10-16T10:50:02;7.43;;;2.80;;
14080;SDS011;7116;52.152;5.392;2022-10-16T11:00:09;9.23;;;2.77;;
14080;SDS011;7116;52.152;5.392;2022-10-16T11:02:41;8.70;;;2.72;;
14080;SDS011;7116;52.152;5.392;2022-10-16T11:05:28;9.32;;;2.25;;
14080;SDS011;7116;52.152;5.392;2022-10-16T11:08:04;10.57;;;2.40;;
14080;SDS011;7116;52.152;5.392;2022-10-16T11:10:38;11.88;;;2.42;;
14080;SDS011;7116;52.152;5.392;2022-10-16T11:13:19;9.00;;;2.92;;
14080;SDS011;7116;52.152;5.392;2022-10-16T11:15:47;10.13;;;2.58;;
14080;SDS011;7116;52.152;5.392;2022-10-16T11:18:16;9.07;;;2.67;;
14080;SDS011;7116;52.152;5.392;2022-10-16T11:20:48;6.17;;;1.80;;
14080;SDS011;7116;52.152;5.392;2022-10-16T11:23:24;7.03;;;1.83;;
14080;SDS011;7116;52.152;5.392;2022-10-16T11:25:50;11.07;;;2.70;;
14080;SDS011;7116;52.152;5.392;2022-10-16T11:28:20;8.05;;;2.30;;
14080;SDS011;7116;52.152;5.392;2022-10-16T11:30:54;10.00;;;2.55;;
14080;SDS011;7116;52.152;5.392;2022-10-16T11:33:30;8.20;;;2.40;;
14080;SDS011;7116;52.152;5.392;2022-10-16T11:41:41;7.22;;;2.13;;
14080;SDS011;7116;52.152;5.392;2022-10-16T11:44:18;7.60;;;2.58;;
14080;SDS011;7116;52.152;5.392;2022-10-16T11:46:53;7.00;;;1.97;;
14080;SDS011;7116;52.152;5.392;2022-10-16T11:49:24;7.72;;;2.20;;
14080;SDS011;7116;52.152;5.392;2022-10-16T11:56:53;8.27;;;2.20;;
14080;SDS011;7116;52.152;5.392;2022-10-16T12:01:52;8.90;;;2.47;;
14080;SDS011;7116;52.152;5.392;2022-10-16T12:09:24;6.45;;;2.47;;
14080;SDS011;7116;52.152;5.392;2022-10-16T12:11:50;9.90;;;4.00;;
14080;SDS011;7116;52.152;5.392;2022-10-16T12:16:54;6.32;;;2.83;;
14080;SDS011;7116;52.152;5.392;2022-10-16T12:19:20;7.65;;;2.88;;
14080;SDS011;7116;52.152;5.392;2022-10-16T12:21:46;9.43;;;3.47;;
14080;SDS011;7116;52.152;5.392;2022-10-16T12:26:52;10.93;;;2.53;;
14080;SDS011;7116;52.152;5.392;2022-10-16T12:29:34;10.17;;;2.43;;
14080;SDS011;7116;52.152;5.392;2022-10-16T12:32:00;9.90;;;2.22;;
14080;SDS011;7116;52.152;5.392;2022-10-16T12:36:51;5.78;;;2.25;;
14080;SDS011;7116;52.152;5.392;2022-10-16T12:39:22;6.45;;;2.42;;
14080;SDS011;7116;52.152;5.392;2022-10-16T12:41:48;9.65;;;2.40;;
14080;SDS011;7116;52.152;5.392;2022-10-16T12:44:25;9.60;;;2.50;;
14080;SDS011;7116;52.152;5.392;2022-10-16T12:46:53;5.27;;;2.10;;
14080;SDS011;7116;52.152;5.392;2022-10-16T12:49:21;10.20;;;2.17;;
14080;SDS011;7116;52.152;5.392;2022-10-16T12:51:47;6.80;;;2.22;;
14080;SDS011;7116;52.152;5.392;2022-10-16T12:56:47;8.30;;;2.40;;
14080;SDS011;7116;52.152;5.392;2022-10-16T12:59:30;13.07;;;2.73;;
14080;SDS011;7116;52.152;5.392;2022-10-16T13:07:35;8.55;;;2.42;;
14080;SDS011;7116;52.152;5.392;2022-10-16T13:12:41;6.70;;;2.20;;
14080;SDS011;7116;52.152;5.392;2022-10-16T13:15:19;7.45;;;2.30;;
14080;SDS011;7116;52.152;5.392;2022-10-16T13:20:21;9.10;;;2.75;;
14080;SDS011;7116;52.152;5.392;2022-10-16T13:27:48;7.80;;;2.22;;
14080;SDS011;7116;52.152;5.392;2022-10-16T13:30:17;6.72;;;1.80;;
14080;SDS011;7116;52.152;5.392;2022-10-16T13:32:46;7.97;;;2.33;;
14080;SDS011;7116;52.152;5.392;2022-10-16T13:35:23;6.43;;;2.13;;
14080;SDS011;7116;52.152;5.392;2022-10-16T13:37:49;6.37;;;1.80;;
14080;SDS011;7116;52.152;5.392;2022-10-16T13:40:19;7.07;;;2.08;;
14080;SDS011;7116;52.152;5.392;2022-10-16T13:42:44;10.63;;;2.42;;
14080;SDS011;7116;52.152;5.392;2022-10-16T13:45:19;8.80;;;2.50;;
14080;SDS011;7116;52.152;5.392;2022-10-16T13:47:45;6.87;;;2.70;;
14080;SDS011;7116;52.152;5.392;2022-10-16T13:50:11;6.17;;;2.40;;
14080;SDS011;7116;52.152;5.392;2022-10-16T13:52:37;11.18;;;2.70;;
14080;SDS011;7116;52.152;5.392;2022-10-16T13:55:03;8.05;;;2.22;;
14080;SDS011;7116;52.152;5.392;2022-10-16T13:57:28;8.60;;;2.63;;
14080;SDS011;7116;52.152;5.392;2022-10-16T13:59:54;10.27;;;2.53;;
14080;SDS011;7116;52.152;5.392;2022-10-16T14:04:47;9.35;;;2.30;;
14080;SDS011;7116;52.152;5.392;2022-10-16T14:07:14;11.00;;;3.77;;
14080;SDS011;7116;52.152;5.392;2022-10-16T14:09:39;8.93;;;2.55;;
14080;SDS011;7116;52.152;5.392;2022-10-16T14:12:08;4.68;;;2.20;;
14080;SDS011;7116;52.152;5.392;2022-10-16T14:14:38;8.03;;;2.53;;
14080;SDS011;7116;52.152;5.392;2022-10-16T14:17:04;7.28;;;2.55;;
14080;SDS011;7116;52.152;5.392;2022-10-16T14:19:30;8.03;;;2.70;;
14080;SDS011;7116;52.152;5.392;2022-10-16T14:21:55;8.18;;;2.50;;
14080;SDS011;7116;52.152;5.392;2022-10-16T14:24:25;15.00;;;2.63;;
14080;SDS011;7116;52.152;5.392;2022-10-16T14:26:50;7.35;;;2.05;;
14080;SDS011;7116;52.152;5.392;2022-10-16T14:29:18;10.13;;;2.85;;
14080;SDS011;7116;52.152;5.392;2022-10-16T14:31:54;9.43;;;2.83;;
14080;SDS011;7116;52.152;5.392;2022-10-16T14:34:23;7.23;;;2.50;;
14080;SDS011;7116;52.152;5.392;2022-10-16T14:36:49;7.88;;;3.05;;
14080;SDS011;7116;52.152;5.392;2022-10-16T14:39:17;7.30;;;3.20;;
14080;SDS011;7116;52.152;5.392;2022-10-16T14:41:45;13.43;;;3.45;;
14080;SDS011;7116;52.152;5.392;2022-10-16T14:44:10;10.55;;;2.90;;
14080;SDS011;7116;52.152;5.392;2022-10-16T14:46:37;12.75;;;4.13;;
14080;SDS011;7116;52.152;5.392;2022-10-16T14:51:38;9.85;;;2.80;;
14080;SDS011;7116;52.152;5.392;2022-10-16T14:54:03;10.90;;;2.85;;
14080;SDS011;7116;52.152;5.392;2022-10-16T14:56:29;11.50;;;2.90;;
14080;SDS011;7116;52.152;5.392;2022-10-16T14:58:55;15.13;;;3.88;;
14080;SDS011;7116;52.152;5.392;2022-10-16T15:01:20;9.57;;;3.15;;
14080;SDS011;7116;52.152;5.392;2022-10-16T15:03:46;9.70;;;3.10;;
14080;SDS011;7116;52.152;5.392;2022-10-16T15:06:12;8.57;;;2.57;;
14080;SDS011;7116;52.152;5.392;2022-10-16T15:08:38;10.63;;;3.08;;
14080;SDS011;7116;52.152;5.392;2022-10-16T15:11:03;11.10;;;3.47;;
14080;SDS011;7116;52.152;5.392;2022-10-16T15:13:28;11.77;;;3.13;;
14080;SDS011;7116;52.152;5.392;2022-10-16T15:15:54;7.87;;;2.80;;
14080;SDS011;7116;52.152;5.392;2022-10-16T15:18:19;11.80;;;3.00;;
14080;SDS011;7116;52.152;5.392;2022-10-16T15:20:50;6.03;;;2.37;;
14080;SDS011;7116;52.152;5.392;2022-10-16T15:23:19;9.43;;;2.97;;
14080;SDS011;7116;52.152;5.392;2022-10-16T15:25:45;9.57;;;3.10;;
14080;SDS011;7116;52.152;5.392;2022-10-16T15:28:11;8.85;;;3.28;;
14080;SDS011;7116;52.152;5.392;2022-10-16T15:30:37;13.40;;;3.20;;
14080;SDS011;7116;52.152;5.392;2022-10-16T15:33:03;10.55;;;3.20;;
14080;SDS011;7116;52.152;5.392;2022-10-16T15:35:28;6.73;;;2.77;;
14080;SDS011;7116;52.152;5.392;2022-10-16T15:37:54;11.82;;;3.78;;
14080;SDS011;7116;52.152;5.392;2022-10-16T15:40:19;10.53;;;3.20;;
14080;SDS011;7116;52.152;5.392;2022-10-16T15:42:45;11.73;;;3.70;;
14080;SDS011;7116;52.152;5.392;2022-10-16T15:45:10;11.77;;;3.78;;
14080;SDS011;7116;52.152;5.392;2022-10-16T15:47:36;9.70;;;3.90;;
14080;SDS011;7116;52.152;5.392;2022-10-16T15:50:03;10.03;;;4.10;;
14080;SDS011;7116;52.152;5.392;2022-10-16T15:52:29;9.73;;;3.58;;
14080;SDS011;7116;52.152;5.392;2022-10-16T15:54:54;8.43;;;4.60;;
14080;SDS011;7116;52.152;5.392;2022-10-16T15:57:19;9.90;;;4.10;;
14080;SDS011;7116;52.152;5.392;2022-10-16T15:59:45;9.83;;;3.90;;
14080;SDS011;7116;52.152;5.392;2022-10-16T16:02:10;15.30;;;4.80;;
14080;SDS011;7116;52.152;5.392;2022-10-16T16:04:37;8.63;;;4.20;;
14080;SDS011;7116;52.152;5.392;2022-10-16T16:07:03;14.50;;;5.68;;
14080;SDS011;7116;52.152;5.392;2022-10-16T16:09:28;14.83;;;7.33;;
14080;SDS011;7116;52.152;5.392;2022-10-16T16:11:57;16.63;;;7.72;;
14080;SDS011;7116;52.152;5.392;2022-10-16T16:14:25;14.38;;;7.80;;
14080;SDS011;7116;52.152;5.392;2022-10-16T16:16:52;16.50;;;10.43;;
14080;SDS011;7116;52.152;5.392;2022-10-16T16:19:18;20.07;;;10.13;;
14080;SDS011;7116;52.152;5.392;2022-10-16T16:21:45;11.98;;;8.45;;
14080;SDS011;7116;52.152;5.392;2022-10-16T16:24:11;18.57;;;8.47;;
14080;SDS011;7116;52.152;5.392;2022-10-16T16:26:36;14.83;;;9.27;;
14080;SDS011;7116;52.152;5.392;2022-10-16T16:29:04;18.27;;;8.75;;
14080;SDS011;7116;52.152;5.392;2022-10-16T16:31:30;16.80;;;7.17;;
14080;SDS011;7116;52.152;5.392;2022-10-16T16:33:55;14.00;;;7.55;;
14080;SDS011;7116;52.152;5.392;2022-10-16T16:36:22;14.40;;;6.82;;
14080;SDS011;7116;52.152;5.392;2022-10-16T16:38:47;16.87;;;6.60;;
14080;SDS011;7116;52.152;5.392;2022-10-16T16:41:17;14.10;;;5.40;;
14080;SDS011;7116;52.152;5.392;2022-10-16T16:43:42;11.20;;;5.00;;
14080;SDS011;7116;52.152;5.392;2022-10-16T16:46:08;11.53;;;5.30;;
14080;SDS011;7116;52.152;5.392;2022-10-16T16:48:33;11.80;;;4.57;;
14080;SDS011;7116;52.152;5.392;2022-10-16T16:51:08;15.20;;;5.00;;
14080;SDS011;7116;52.152;5.392;2022-10-16T16:53:34;9.98;;;4.10;;
14080;SDS011;7116;52.152;5.392;2022-10-16T16:56:03;9.23;;;3.85;;
14080;SDS011;7116;52.152;5.392;2022-10-16T16:58:28;11.00;;;4.53;;
14080;SDS011;7116;52.152;5.392;2022-10-16T17:01:03;14.38;;;4.50;;
14080;SDS011;7116;52.152;5.392;2022-10-16T17:03:29;13.27;;;4.95;;
14080;SDS011;7116;52.152;5.392;2022-10-16T17:06:01;12.57;;;4.85;;
14080;SDS011;7116;52.152;5.392;2022-10-16T17:08:26;16.50;;;5.72;;
14080;SDS011;7116;52.152;5.392;2022-10-16T17:10:52;15.77;;;5.83;;
14080;SDS011;7116;52.152;5.392;2022-10-16T17:13:20;15.73;;;5.82;;
14080;SDS011;7116;52.152;5.392;2022-10-16T17:15:46;12.47;;;5.63;;
14080;SDS011;7116;52.152;5.392;2022-10-16T17:18:12;11.05;;;4.93;;
14080;SDS011;7116;52.152;5.392;2022-10-16T17:20:37;15.80;;;5.23;;
14080;SDS011;7116;52.152;5.392;2022-10-16T17:23:02;13.47;;;5.67;;
14080;SDS011;7116;52.152;5.392;2022-10-16T17:25:27;11.87;;;5.63;;
14080;SDS011;7116;52.152;5.392;2022-10-16T17:27:52;13.87;;;6.17;;
14080;SDS011;7116;52.152;5.392;2022-10-16T17:30:17;14.27;;;5.37;;
14080;SDS011;7116;52.152;5.392;2022-10-16T17:32:43;13.83;;;5.70;;
14080;SDS011;7116;52.152;5.392;2022-10-16T17:35:08;11.87;;;5.27;;
14080;SDS011;7116;52.152;5.392;2022-10-16T17:37:33;11.53;;;5.40;;
14080;SDS011;7116;52.152;5.392;2022-10-16T17:39:59;13.55;;;5.40;;
14080;SDS011;7116;52.152;5.392;2022-10-16T17:42:24;17.67;;;6.67;;
14080;SDS011;7116;52.152;5.392;2022-10-16T17:44:51;12.77;;;6.37;;
14080;SDS011;7116;52.152;5.392;2022-10-16T17:47:16;15.80;;;6.00;;
14080;SDS011;7116;52.152;5.392;2022-10-16T17:49:41;14.17;;;7.20;;
14080;SDS011;7116;52.152;5.392;2022-10-16T17:52:07;13.03;;;6.63;;
14080;SDS011;7116;52.152;5.392;2022-10-16T17:54:32;14.17;;;5.80;;
14080;SDS011;7116;52.152;5.392;2022-10-16T17:56:57;14.40;;;5.13;;
14080;SDS011;7116;52.152;5.392;2022-10-16T17:59:23;12.90;;;6.47;;
14080;SDS011;7116;52.152;5.392;2022-10-16T18:01:48;13.00;;;5.23;;
14080;SDS011;7116;52.152;5.392;2022-10-16T18:04:14;12.75;;;4.90;;
14080;SDS011;7116;52.152;5.392;2022-10-16T18:06:40;12.20;;;4.97;;
14080;SDS011;7116;52.152;5.392;2022-10-16T18:09:05;11.88;;;5.15;;
14080;SDS011;7116;52.152;5.392;2022-10-16T18:11:32;8.20;;;4.38;;
14080;SDS011;7116;52.152;5.392;2022-10-16T18:13:58;12.93;;;5.45;;
14080;SDS011;7116;52.152;5.392;2022-10-16T18:16:24;14.13;;;4.07;;
14080;SDS011;7116;52.152;5.392;2022-10-16T18:18:50;10.82;;;4.22;;
14080;SDS011;7116;52.152;5.392;2022-10-16T18:21:17;13.90;;;4.47;;
14080;SDS011;7116;52.152;5.392;2022-10-16T18:23:42;14.60;;;5.30;;
14080;SDS011;7116;52.152;5.392;2022-10-16T18:26:08;12.47;;;4.30;;
14080;SDS011;7116;52.152;5.392;2022-10-16T18:28:34;13.82;;;4.78;;
14080;SDS011;7116;52.152;5.392;2022-10-16T18:31:00;7.27;;;4.30;;
14080;SDS011;7116;52.152;5.392;2022-10-16T18:33:26;17.75;;;5.47;;
14080;SDS011;7116;52.152;5.392;2022-10-16T18:35:52;16.47;;;5.40;;
14080;SDS011;7116;52.152;5.392;2022-10-16T18:38:18;11.83;;;5.03;;
14080;SDS011;7116;52.152;5.392;2022-10-16T18:40:43;14.33;;;4.77;;
14080;SDS011;7116;52.152;5.392;2022-10-16T18:43:09;13.20;;;5.30;;
14080;SDS011;7116;52.152;5.392;2022-10-16T18:45:34;16.53;;;6.20;;
14080;SDS011;7116;52.152;5.392;2022-10-16T18:47:59;11.93;;;4.80;;
14080;SDS011;7116;52.152;5.392;2022-10-16T18:50:24;17.73;;;5.55;;
14080;SDS011;7116;52.152;5.392;2022-10-16T18:52:50;15.67;;;5.50;;
14080;SDS011;7116;52.152;5.392;2022-10-16T18:55:15;15.37;;;6.47;;
14080;SDS011;7116;52.152;5.392;2022-10-16T18:57:40;12.30;;;4.60;;
14080;SDS011;7116;52.152;5.392;2022-10-16T19:00:06;9.90;;;4.53;;
14080;SDS011;7116;52.152;5.392;2022-10-16T19:02:31;11.70;;;4.50;;
14080;SDS011;7116;52.152;5.392;2022-10-16T19:04:56;10.63;;;4.80;;
14080;SDS011;7116;52.152;5.392;2022-10-16T19:07:23;8.98;;;4.53;;
14080;SDS011;7116;52.152;5.392;2022-10-16T19:09:51;9.97;;;4.67;;
14080;SDS011;7116;52.152;5.392;2022-10-16T19:15:17;13.52;;;4.57;;
14080;SDS011;7116;52.152;5.392;2022-10-16T19:18:24;17.38;;;4.88;;
14080;SDS011;7116;52.152;5.392;2022-10-16T19:24:28;15.52;;;6.88;;
14080;SDS011;7116;52.152;5.392;2022-10-16T19:27:13;16.02;;;7.38;;
14080;SDS011;7116;52.152;5.392;2022-10-16T19:29:39;13.17;;;5.47;;
14080;SDS011;7116;52.152;5.392;2022-10-16T19:32:26;18.42;;;6.13;;
14080;SDS011;7116;52.152;5.392;2022-10-16T19:35:11;17.27;;;5.30;;
14080;SDS011;7116;52.152;5.392;2022-10-16T19:37:41;15.80;;;5.80;;
14080;SDS011;7116;52.152;5.392;2022-10-16T19:40:16;14.48;;;5.32;;
14080;SDS011;7116;52.152;5.392;2022-10-16T19:43:01;18.15;;;5.53;;
14080;SDS011;7116;52.152;5.392;2022-10-16T19:45:32;14.60;;;4.72;;
14080;SDS011;7116;52.152;5.392;2022-10-16T19:48:36;11.85;;;5.25;;
14080;SDS011;7116;52.152;5.392;2022-10-16T19:51:22;13.77;;;4.97;;
14080;SDS011;7116;52.152;5.392;2022-10-16T19:53:57;14.75;;;4.82;;
14080;SDS011;7116;52.152;5.392;2022-10-16T19:56:45;12.15;;;6.05;;
14080;SDS011;7116;52.152;5.392;2022-10-16T19:59:29;10.75;;;4.85;;
14080;SDS011;7116;52.152;5.392;2022-10-16T20:01:54;15.68;;;5.55;;